Time;durP1;ratioP1;P1;durP2;ratioP2;P2;SDS_P1;SDS_P2;PMS_P1;PMS_P2;Temp;Humidity;BMP_temperature;BMP_pressure;BME280_temperature;BME280_humidity;BME280_pressure;Samples;Min_cycle;Max_cycle;Signal;HPM_P1;HPM_P2
2021/10/09 00:01:22;;;;;;;36.83;21.00;;;;;;;4.67;59.75;102045.09;5051068;28;20036;-58
2021/10/09 00:03:49;;;;;;;38.55;20.95;;;;;;;4.68;59.55;102046.84;5051333;28;20536;-58
2021/10/09 00:06:14;;;;;;;40.65;20.90;;;;;;;4.67;59.79;102046.00;5051870;28;20116;-56
2021/10/09 00:08:40;;;;;;;37.50;18.38;;;;;;;4.66;59.90;102048.66;5052004;28;20108;-56
2021/10/09 00:11:13;;;;;;;43.90;21.02;;;;;;;4.62;59.99;102037.25;5051360;28;20552;-59
2021/10/09 00:13:38;;;;;;;38.00;20.33;;;;;;;4.61;60.13;102046.13;5050971;28;20029;-59
2021/10/09 00:16:04;;;;;;;38.13;19.33;;;;;;;4.44;60.28;102022.56;5051904;28;20031;-56
2021/10/09 00:18:29;;;;;;;37.83;20.88;;;;;;;4.57;59.72;102044.41;5051358;28;20037;-59
2021/10/09 00:20:55;;;;;;;42.00;20.77;;;;;;;4.48;60.26;102026.03;5051352;28;20033;-58
2021/10/09 00:23:20;;;;;;;37.70;18.92;;;;;;;4.47;60.56;102038.44;5049843;28;20083;-57
2021/10/09 00:25:46;;;;;;;41.25;19.67;;;;;;;4.48;60.45;102036.66;5049907;28;20025;-57
2021/10/09 00:28:11;;;;;;;38.38;19.40;;;;;;;4.42;60.49;102027.91;5050837;28;20078;-57
2021/10/09 00:30:37;;;;;;;35.92;20.20;;;;;;;4.46;60.08;102034.00;5051123;28;20021;-59
2021/10/09 00:33:02;;;;;;;37.92;20.30;;;;;;;4.44;59.90;102027.88;5050747;28;20033;-56
2021/10/09 00:35:27;;;;;;;42.28;19.67;;;;;;;4.35;60.62;102013.03;5051132;28;20741;-57
2021/10/09 00:37:53;;;;;;;33.60;18.88;;;;;;;4.39;60.29;102027.09;5050652;28;20538;-59
2021/10/09 00:40:18;;;;;;;34.83;18.58;;;;;;;4.35;60.06;102026.28;5049453;28;20439;-57
2021/10/09 00:42:44;;;;;;;40.60;19.20;;;;;;;4.31;60.12;102020.16;5032061;28;20039;-59
2021/10/09 00:45:09;;;;;;;34.67;19.15;;;;;;;4.31;60.01;102022.81;5030871;28;20143;-56
2021/10/09 00:47:35;;;;;;;37.85;19.50;;;;;;;4.31;60.49;102016.63;5030699;28;20042;-58
2021/10/09 00:50:01;;;;;;;39.58;19.17;;;;;;;4.30;59.94;102020.19;5030141;28;20064;-58
2021/10/09 00:52:27;;;;;;;35.72;18.48;;;;;;;4.27;60.38;102017.59;5031202;28;20477;-56
2021/10/09 00:54:54;;;;;;;33.38;18.73;;;;;;;4.26;60.05;102010.53;5030545;28;20072;-59
2021/10/09 00:57:22;;;;;;;34.85;19.00;;;;;;;4.25;60.50;102014.09;5030835;28;20516;-56
2021/10/09 00:59:50;;;;;;;33.25;18.83;;;;;;;4.02;60.22;101989.78;5030377;28;20029;-59
2021/10/09 01:02:16;;;;;;;34.35;19.55;;;;;;;4.19;60.52;102011.56;5030808;28;20033;-59
2021/10/09 01:04:42;;;;;;;33.95;19.38;;;;;;;4.16;60.61;102016.03;5031124;28;20072;-59
2021/10/09 01:07:08;;;;;;;36.58;19.52;;;;;;;4.14;61.12;102009.88;5031167;28;20029;-57
2021/10/09 01:09:34;;;;;;;37.17;19.40;;;;;;;4.13;61.04;102018.72;5030554;28;20049;-58
2021/10/09 01:12:00;;;;;;;40.58;19.40;;;;;;;4.08;61.03;102011.75;5030787;28;20445;-57
2021/10/09 01:14:26;;;;;;;38.63;20.20;;;;;;;4.06;61.30;102013.56;5030868;28;20068;-58
2021/10/09 01:16:51;;;;;;;38.30;19.65;;;;;;;4.08;61.21;102017.91;5030577;28;20026;-58
2021/10/09 01:19:16;;;;;;;42.30;19.38;;;;;;;4.08;62.20;102020.56;5030090;28;20029;-58
2021/10/09 01:21:45;;;;;;;39.13;19.98;;;;;;;4.09;61.13;102013.50;5030821;28;20540;-55
2021/10/09 01:24:11;;;;;;;34.75;19.27;;;;;;;3.99;61.71;102008.38;5031050;28;20136;-58
2021/10/09 01:26:37;;;;;;;33.55;18.58;;;;;;;3.99;61.40;102005.72;5032283;28;20025;-57
2021/10/09 01:29:04;;;;;;;34.13;19.23;;;;;;;3.98;61.29;102005.75;5034650;28;20116;-58
2021/10/09 01:31:30;;;;;;;40.10;20.20;;;;;;;3.92;61.88;102001.41;5035077;28;20040;-59
2021/10/09 01:33:56;;;;;;;35.15;19.50;;;;;;;3.94;61.86;102004.06;5034809;28;20095;-57
2021/10/09 01:36:21;;;;;;;34.97;19.85;;;;;;;3.96;61.73;102002.25;5034196;28;20470;-59
2021/10/09 01:38:51;;;;;;;37.28;19.17;;;;;;;3.73;61.27;101969.09;5048108;28;20029;-58
2021/10/09 01:41:17;;;;;;;37.13;19.73;;;;;;;3.93;61.90;102008.47;5054433;28;20028;-59
2021/10/09 01:43:43;;;;;;;43.70;19.80;;;;;;;3.87;61.80;101998.88;5054178;28;20075;-55
2021/10/09 01:46:08;;;;;;;33.78;19.92;;;;;;;3.84;62.31;102004.19;5054238;28;20033;-59
2021/10/09 01:48:36;;;;;;;34.13;19.05;;;;;;;3.85;62.19;102010.38;5054087;28;20029;-58
2021/10/09 01:51:04;;;;;;;32.80;18.95;;;;;;;3.82;62.22;102003.34;5054415;28;20060;-58
2021/10/09 01:53:29;;;;;;;36.70;18.95;;;;;;;3.77;62.16;101997.25;5053187;28;20125;-59
2021/10/09 01:55:56;;;;;;;35.35;19.20;;;;;;;3.57;62.33;101971.13;5054264;28;20108;-57
2021/10/09 01:58:21;;;;;;;37.88;19.02;;;;;;;3.70;62.78;102000.94;5054056;28;20032;-58
2021/10/09 02:00:47;;;;;;;34.75;20.13;;;;;;;3.67;61.98;101995.69;5054322;28;20025;-59
2021/10/09 02:03:15;;;;;;;32.65;19.38;;;;;;;3.68;62.42;102003.59;5054442;28;20059;-60
2021/10/09 02:05:40;;;;;;;34.45;18.67;;;;;;;3.67;62.60;102006.28;5044504;28;20539;-59
2021/10/09 02:08:06;;;;;;;34.92;19.40;;;;;;;3.60;63.08;102000.22;5033385;28;20033;-57
2021/10/09 02:10:32;;;;;;;40.65;18.55;;;;;;;3.65;62.58;101992.19;5034132;28;20045;-56
2021/10/09 02:13:02;;;;;;;31.77;17.85;;;;;;;3.64;62.46;102001.91;5034100;28;20042;-55
2021/10/09 02:26:04;;;;;;;36.30;17.15;;;;;;;3.53;62.53;101988.81;5033609;28;20034;-57
2021/10/09 02:28:29;;;;;;;31.00;16.90;;;;;;;3.51;62.46;101995.94;5033135;28;20102;-57
2021/10/09 02:30:55;;;;;;;32.45;17.50;;;;;;;3.50;62.97;101988.03;5032216;28;20032;-57
2021/10/09 02:33:21;;;;;;;31.30;17.48;;;;;;;3.47;62.60;101988.94;5033251;28;20462;-57
2021/10/09 02:35:47;;;;;;;28.23;17.17;;;;;;;3.21;62.63;101936.38;5033028;28;20029;-56
2021/10/09 02:38:13;;;;;;;31.52;17.52;;;;;;;3.44;62.52;101981.03;5032828;28;20095;-59
2021/10/09 02:40:43;;;;;;;33.63;17.83;;;;;;;3.46;62.29;101984.53;5033278;28;20021;-57
2021/10/09 02:43:09;;;;;;;28.98;16.48;;;;;;;3.44;62.25;101973.09;5033061;28;20120;-60
2021/10/09 02:45:34;;;;;;;31.02;17.10;;;;;;;3.44;62.92;101973.97;5033499;28;20112;-59
2021/10/09 02:48:02;;;;;;;33.60;17.35;;;;;;;3.44;62.60;101973.09;5033208;28;20034;-59
2021/10/09 02:50:29;;;;;;;29.88;16.50;;;;;;;3.41;62.78;101968.72;5033009;28;20069;-58
2021/10/09 02:52:55;;;;;;;29.77;16.42;;;;;;;3.40;62.70;101963.47;5033385;28;20036;-58
2021/10/09 02:55:21;;;;;;;29.23;17.02;;;;;;;3.34;63.01;101953.84;5032656;28;20041;-59
2021/10/09 02:57:48;;;;;;;30.98;16.02;;;;;;;3.37;63.33;101960.84;5031428;28;20381;-56
2021/10/09 03:00:14;;;;;;;33.10;17.27;;;;;;;3.33;63.31;101964.44;5033091;28;20104;-58
2021/10/09 03:02:40;;;;;;;28.48;16.30;;;;;;;3.23;63.49;101951.34;5033106;28;20064;-56
2021/10/09 03:05:07;;;;;;;28.83;16.83;;;;;;;3.30;63.79;101960.94;5032114;28;20391;-57
2021/10/09 03:07:32;;;;;;;30.50;17.42;;;;;;;3.24;63.57;101954.84;5032795;28;20116;-57
2021/10/09 03:09:58;;;;;;;28.33;16.50;;;;;;;3.25;64.03;101952.19;5031645;28;20674;-58
2021/10/09 03:12:24;;;;;;;29.52;16.23;;;;;;;3.28;63.54;101957.44;5032361;28;20485;-54
2021/10/09 03:14:50;;;;;;;31.58;16.25;;;;;;;3.27;63.80;101961.00;5032169;28;20619;-57
2021/10/09 03:17:16;;;;;;;29.95;16.48;;;;;;;3.28;64.06;101957.44;5032358;28;20072;-57
2021/10/09 03:19:41;;;;;;;28.38;17.08;;;;;;;3.27;63.72;101954.84;5032477;28;20029;-59
2021/10/09 03:22:07;;;;;;;30.77;16.58;;;;;;;3.27;63.96;101950.41;5032183;28;20045;-57
2021/10/09 03:24:33;;;;;;;29.90;16.67;;;;;;;3.28;63.80;101949.50;5032254;28;20022;-58
2021/10/09 03:26:58;;;;;;;32.38;17.30;;;;;;;3.24;63.71;101945.16;5032738;28;20030;-58
2021/10/09 03:29:24;;;;;;;28.33;15.43;;;;;;;3.29;63.51;101956.53;5032676;28;20037;-57
2021/10/09 03:31:49;;;;;;;32.80;16.55;;;;;;;2.51;63.55;101821.03;5032124;28;20446;-56
2021/10/09 03:34:15;;;;;;;28.15;16.33;;;;;;;3.28;63.57;101952.16;5014756;28;20036;-55
2021/10/09 03:36:40;;;;;;;32.67;17.23;;;;;;;3.25;63.53;101951.31;5014414;28;20033;-57
2021/10/09 03:39:12;;;;;;;30.30;16.70;;;;;;;3.25;63.47;101952.19;5032672;28;20037;-52
2021/10/09 03:41:41;;;;;;;30.60;17.10;;;;;;;3.00;63.39;101915.53;5031884;28;20041;-57
2021/10/09 03:44:07;;;;;;;30.80;16.95;;;;;;;3.25;63.96;101961.91;5032329;28;20056;-59
2021/10/09 03:46:40;;;;;;;31.38;17.52;;;;;;;3.25;63.34;101957.50;5030734;28;20061;-58
2021/10/09 03:54:26;;;;;;;29.17;16.55;;;;;;;3.31;63.17;101964.47;5031777;28;20030;-58
2021/10/09 03:56:52;;;;;;;31.67;17.40;;;;;;;3.06;63.58;101913.69;5031016;28;20129;-54
2021/10/09 03:59:17;;;;;;;31.17;17.23;;;;;;;3.38;63.26;101962.63;5032242;28;20033;-56
2021/10/09 04:01:42;;;;;;;35.45;16.52;;;;;;;3.41;63.25;101957.25;5031631;28;20112;-55
2021/10/09 04:04:08;;;;;;;28.52;17.42;;;;;;;3.45;62.85;101966.91;5031935;28;20112;-54
2021/10/09 04:06:33;;;;;;;33.85;17.45;;;;;;;3.47;62.52;101962.47;5032109;28;20029;-55
2021/10/09 04:08:59;;;;;;;33.10;16.52;;;;;;;3.55;62.89;101955.25;5031466;28;20045;-53
2021/10/09 04:11:24;;;;;;;30.02;16.40;;;;;;;3.59;62.51;101958.72;5031270;28;20037;-52
2021/10/09 04:13:50;;;;;;;31.77;16.30;;;;;;;3.63;62.01;101951.59;5031257;28;20041;-56
2021/10/09 04:16:15;;;;;;;32.50;16.05;;;;;;;3.72;61.87;101959.38;5031449;28;20033;-54
2021/10/09 04:18:41;;;;;;;32.08;16.35;;;;;;;3.71;62.08;101952.34;5031501;28;20454;-54
2021/10/09 04:21:06;;;;;;;32.20;16.65;;;;;;;3.82;61.39;101955.66;5031150;28;20065;-57
2021/10/09 04:23:31;;;;;;;29.50;15.63;;;;;;;3.86;61.15;101949.44;5030309;28;20467;-58
2021/10/09 04:25:57;;;;;;;30.25;16.00;;;;;;;3.96;60.65;101951.91;5031559;28;20074;-56
2021/10/09 04:28:22;;;;;;;26.65;14.98;;;;;;;4.04;60.54;101960.56;5030907;28;20021;-59
2021/10/09 04:30:48;;;;;;;28.23;15.23;;;;;;;4.11;60.32;101962.22;5013576;28;20026;-60
2021/10/09 04:33:13;;;;;;;26.80;14.70;;;;;;;4.20;60.03;101947.03;5031308;28;20025;-55
2021/10/09 04:35:39;;;;;;;25.15;14.95;;;;;;;4.26;59.81;101954.84;5031186;28;20489;-59
2021/10/09 04:38:07;;;;;;;28.77;14.63;;;;;;;4.12;59.60;101918.00;5030753;28;20032;-58
2021/10/09 04:40:32;;;;;;;26.90;14.30;;;;;;;5.06;58.07;101954.03;5030336;28;20136;-58
2021/10/09 04:42:57;;;;;;;24.85;15.13;;;;;;;6.65;53.56;101946.34;5030790;28;20059;-57
2021/10/09 04:45:23;;;;;;;30.27;14.98;;;;;;;8.37;48.44;101954.88;5030902;28;20035;-58
2021/10/09 04:47:49;;;;;;;27.63;14.98;;;;;;;9.71;44.66;101947.81;5031447;28;20124;-58
2021/10/09 04:50:14;;;;;;;22.48;13.98;;;;;;;10.16;42.76;101914.63;5031509;28;20026;-60
2021/10/09 04:52:40;;;;;;;22.33;13.90;;;;;;;10.80;41.26;101949.22;5030938;28;20038;-57
2021/10/09 04:55:06;;;;;;;24.08;12.77;;;;;;;11.43;40.10;101952.47;5031475;28;20103;-56
2021/10/09 04:57:31;;;;;;;22.55;12.40;;;;;;;12.46;37.86;101954.28;5029746;28;20436;-55
2021/10/09 04:59:57;;;;;;;21.88;12.35;;;;;;;14.41;34.46;101935.81;5031075;28;20083;-57
2021/10/09 05:02:22;;;;;;;18.77;11.65;;;;;;;16.39;30.38;101942.50;5030360;28;20029;-54
2021/10/09 05:04:48;;;;;;;18.02;11.85;;;;;;;18.04;28.15;101941.16;5031240;28;20156;-59
2021/10/09 05:07:13;;;;;;;23.80;11.65;;;;;;;19.44;25.67;101940.75;5031814;28;20032;-57
2021/10/09 05:09:39;;;;;;;20.73;12.30;;;;;;;20.64;23.85;101932.16;5050583;28;20056;-55
2021/10/09 05:12:07;;;;;;;26.83;12.27;;;;;;;21.87;22.27;101941.88;5049427;28;20114;-59
2021/10/09 05:14:33;;;;;;;25.13;12.88;;;;;;;22.98;20.34;101945.72;5051374;28;20476;-57
2021/10/09 05:16:58;;;;;;;19.20;12.65;;;;;;;24.07;18.89;101938.31;5050451;28;20037;-59
2021/10/09 05:19:24;;;;;;;20.17;11.80;;;;;;;24.90;17.98;101928.59;5050370;28;20029;-58
2021/10/09 05:21:49;;;;;;;20.83;12.40;;;;;;;25.78;16.75;101937.25;5050756;28;20033;-57
2021/10/09 05:24:15;;;;;;;15.60;11.95;;;;;;;26.45;16.49;101942.63;5040746;28;20028;-58
2021/10/09 05:26:40;;;;;;;17.27;12.15;;;;;;;26.99;15.27;101944.56;5044672;28;20040;-59
2021/10/09 05:29:13;;;;;;;23.27;13.23;;;;;;;27.71;14.80;101936.16;5047405;28;20416;-59
2021/10/09 05:31:38;;;;;;;14.52;11.77;;;;;;;28.42;13.87;101941.25;5044539;28;20044;-58
2021/10/09 05:34:03;;;;;;;16.67;12.88;;;;;;;29.05;13.81;101939.91;5046070;28;20013;-59
2021/10/09 05:36:29;;;;;;;21.75;12.68;;;;;;;29.53;13.06;101922.78;5049415;28;20037;-57
2021/10/09 05:38:55;;;;;;;15.75;11.38;;;;;;;29.96;12.59;101929.25;5048321;28;20037;-59
2021/10/09 05:41:20;;;;;;;13.60;10.88;;;;;;;30.51;12.00;101921.09;5050198;28;20539;-58
2021/10/09 05:43:46;;;;;;;16.17;11.15;;;;;;;31.00;11.81;101927.41;5042230;28;20117;-61
2021/10/09 05:46:12;;;;;;;17.50;11.43;;;;;;;31.40;11.48;101928.56;5028293;28;20030;-59
2021/10/09 05:48:40;;;;;;;16.60;11.32;;;;;;;31.66;10.76;101933.25;5029453;28;20071;-60
2021/10/09 05:56:22;;;;;;;19.83;11.52;;;;;;;33.15;9.99;101928.06;5049614;28;20027;-60
2021/10/09 07:00:35;;;;;;;12.10;7.88;;;;;;;41.09;4.79;101913.91;5033130;28;20026;-66
2021/10/09 07:03:01;;;;;;;9.40;8.35;;;;;;;41.20;4.63;101919.59;5032307;28;20044;-68
2021/10/09 07:05:27;;;;;;;12.60;8.43;;;;;;;41.26;4.44;101918.44;5032107;28;20029;-67
2021/10/09 07:07:57;;;;;;;10.48;7.82;;;;;;;41.27;4.39;101911.69;5032433;28;20546;-67
2021/10/09 07:10:22;;;;;;;10.93;7.93;;;;;;;40.96;4.77;101912.50;5033371;28;20096;-66
2021/10/09 07:12:48;;;;;;;12.88;7.85;;;;;;;40.60;4.72;101907.66;5032429;28;20486;-68
2021/10/09 07:15:15;;;;;;;12.30;8.02;;;;;;;40.32;5.05;101911.81;5031087;28;20045;-67
2021/10/09 07:17:41;;;;;;;10.25;7.68;;;;;;;39.66;5.32;101904.72;5031365;28;20037;-67
2021/10/09 07:20:08;;;;;;;11.75;8.18;;;;;;;39.03;5.80;101886.59;5031457;28;20029;-67
2021/10/09 07:22:34;;;;;;;14.32;8.27;;;;;;;38.91;5.60;101897.97;5031936;28;20044;-67
2021/10/09 07:25:00;;;;;;;12.60;8.38;;;;;;;38.76;5.64;101885.47;5030848;28;20037;-67
2021/10/09 07:27:25;;;;;;;12.93;7.75;;;;;;;38.66;5.84;101904.13;5031961;28;20385;-68
2021/10/09 07:29:51;;;;;;;13.38;8.25;;;;;;;38.03;6.27;101894.13;5031374;28;20064;-67
2021/10/09 07:32:16;;;;;;;11.27;7.88;;;;;;;36.97;6.94;101869.56;5031998;28;20079;-66
2021/10/09 07:34:42;;;;;;;12.88;8.85;;;;;;;35.73;7.60;101895.78;5032001;28;20474;-69
2021/10/09 07:37:08;;;;;;;10.73;8.43;;;;;;;33.52;8.68;101897.69;5038393;28;20044;-66
2021/10/09 07:39:34;;;;;;;13.02;8.20;;;;;;;30.68;10.77;101891.19;5038617;28;20064;-68
2021/10/09 07:42:00;;;;;;;13.40;7.85;;;;;;;28.05;12.55;101905.34;5035481;28;20603;-69
2021/10/09 07:44:26;;;;;;;9.90;7.50;;;;;;;25.68;14.75;101865.25;5050843;28;20036;-68
2021/10/09 07:46:52;;;;;;;15.63;8.20;;;;;;;23.80;16.91;101885.47;5049485;28;20104;-65
2021/10/09 07:49:17;;;;;;;12.98;7.65;;;;;;;22.32;18.57;101899.38;5032915;28;20028;-64
2021/10/09 07:51:45;;;;;;;13.05;8.02;;;;;;;20.93;19.77;101889.66;5050136;28;20103;-64
2021/10/09 07:54:10;;;;;;;9.98;8.18;;;;;;;19.82;21.58;101884.94;5051177;28;20040;-63
2021/10/09 07:56:36;;;;;;;15.77;8.63;;;;;;;18.98;22.70;101883.88;5032897;28;20031;-64
2021/10/09 07:59:03;;;;;;;13.10;7.10;;;;;;;18.38;23.48;101889.66;5049346;28;20032;-62
2021/10/09 08:01:28;;;;;;;12.05;7.28;;;;;;;17.76;24.31;101884.56;5032317;28;20106;-63
2021/10/09 08:03:54;;;;;;;14.35;7.15;;;;;;;17.08;25.03;101858.13;5049911;28;20079;-65
2021/10/09 08:06:19;;;;;;;11.20;6.95;;;;;;;16.91;25.68;101883.72;5049982;28;20044;-62
2021/10/09 08:08:45;;;;;;;12.55;6.68;;;;;;;16.29;26.35;101844.13;5048447;28;20036;-68
2021/10/09 08:11:10;;;;;;;15.65;7.22;;;;;;;16.03;26.65;101841.47;5050685;28;20044;-65
2021/10/09 08:13:36;;;;;;;10.18;6.35;;;;;;;16.08;26.98;101890.63;5049824;28;20037;-66
2021/10/09 08:16:04;;;;;;;13.77;6.32;;;;;;;15.86;27.26;101886.72;5051272;28;20468;-64
2021/10/09 08:18:30;;;;;;;8.52;5.72;;;;;;;15.72;27.13;101878.75;5050337;28;20468;-65
2021/10/09 08:21:03;;;;;;;9.73;6.32;;;;;;;15.59;27.56;101882.28;5049946;28;20481;-67
2021/10/09 08:24:20;;;;;;;11.50;6.45;;;;;;;15.59;27.78;101889.53;5049616;28;20048;-65
2021/10/09 08:36:55;;;;;;;8.20;6.07;;;;;;;15.53;28.24;101874.59;5049579;28;20021;-65
2021/10/09 08:39:21;;;;;;;9.85;6.15;;;;;;;15.65;27.86;101889.94;5051356;28;20029;-65
2021/10/09 08:41:46;;;;;;;7.43;5.50;;;;;;;15.71;27.64;101895.91;5049432;28;20389;-69
2021/10/09 08:44:12;;;;;;;8.18;4.97;;;;;;;15.70;26.96;101888.78;5049379;28;20020;-65
2021/10/09 08:46:37;;;;;;;8.00;4.75;;;;;;;15.64;27.34;101888.22;5049526;28;20021;-64
2021/10/09 08:49:03;;;;;;;8.13;5.18;;;;;;;15.63;27.59;101891.88;5049148;28;20056;-63
2021/10/09 08:51:28;;;;;;;11.02;4.88;;;;;;;15.58;26.93;101891.34;5040076;28;20033;-63
2021/10/09 08:54:03;;;;;;;6.55;4.93;;;;;;;15.48;27.59;101898.38;5032054;28;20551;-65
2021/10/09 08:56:38;;;;;;;10.25;5.20;;;;;;;15.46;27.17;101887.66;5050826;28;20025;-65
2021/10/09 08:59:10;;;;;;;10.35;5.75;;;;;;;15.49;27.36;101890.16;5049378;28;20043;-65
2021/10/09 09:01:55;;;;;;;10.93;5.30;;;;;;;15.45;27.44;101888.63;5050465;28;20067;-63
2021/10/09 09:40:13;;;;;;;11.70;6.72;;;;;;;15.34;28.16;101848.88;5048516;28;20112;-62
2021/10/09 09:42:45;;;;;;;10.00;6.60;;;;;;;15.22;28.09;101855.13;5032413;28;20043;-64
2021/10/09 09:45:13;;;;;;;11.60;6.43;;;;;;;15.00;28.99;101855.69;5050643;28;20436;-68
2021/10/09 09:47:41;;;;;;;10.40;6.22;;;;;;;15.00;28.85;101851.19;5051685;28;20406;-69
2021/10/09 09:50:12;;;;;;;11.77;7.07;;;;;;;15.09;28.52;101862.31;5052135;28;20032;-68
2021/10/09 09:52:40;;;;;;;11.63;7.43;;;;;;;15.01;28.72;101842.13;5036083;28;20029;-68
2021/10/09 09:55:09;;;;;;;13.57;7.32;;;;;;;15.14;28.74;101850.25;5053235;28;20538;-67
2021/10/09 09:57:36;;;;;;;11.32;6.97;;;;;;;14.99;28.60;101806.28;5052924;28;20029;-67
2021/10/09 10:00:07;;;;;;;13.95;7.22;;;;;;;15.22;28.33;101833.53;5053250;28;20079;-68
2021/10/09 10:02:38;;;;;;;12.05;6.82;;;;;;;15.31;28.55;101840.13;5053233;28;20025;-69
2021/10/09 10:05:05;;;;;;;11.43;7.18;;;;;;;15.23;28.74;101829.88;5052082;28;20103;-67
2021/10/09 10:07:33;;;;;;;13.77;7.55;;;;;;;15.12;28.74;101805.44;5052204;28;20029;-68
2021/10/09 10:09:59;;;;;;;14.30;7.32;;;;;;;15.27;29.16;101828.69;5053447;28;20060;-69
2021/10/09 10:12:25;;;;;;;11.00;7.22;;;;;;;15.30;28.56;101828.47;5053583;28;20098;-68
2021/10/09 10:14:51;;;;;;;11.35;6.40;;;;;;;15.24;28.64;101828.03;5053437;28;20037;-69
2021/10/09 10:17:54;;;;;;;11.50;6.90;;;;;;;15.38;28.41;101827.06;5052461;28;20057;-68
2021/10/09 10:20:24;;;;;;;9.38;6.55;;;;;;;15.31;28.61;101821.22;5051192;28;20396;-69
2021/10/09 10:22:55;;;;;;;10.55;6.18;;;;;;;15.34;28.65;101826.44;5048325;28;20064;-67
2021/10/09 10:25:26;;;;;;;11.70;5.97;;;;;;;15.41;28.61;101821.44;5052211;28;20058;-68
2021/10/09 10:28:14;;;;;;;11.30;6.28;;;;;;;15.51;28.24;101825.25;5051743;28;20136;-70
2021/10/09 10:30:42;;;;;;;11.82;5.97;;;;;;;15.39;28.36;101820.69;5053142;28;20029;-68
2021/10/09 10:33:10;;;;;;;11.45;6.25;;;;;;;15.34;28.52;101824.59;5035299;28;20033;-70
2021/10/09 10:35:35;;;;;;;11.73;6.18;;;;;;;15.36;28.45;101816.41;5052482;28;20060;-68
2021/10/09 10:38:07;;;;;;;12.55;5.80;;;;;;;15.39;28.46;101809.91;5052824;28;20064;-68
2021/10/09 10:40:56;;;;;;;14.57;6.15;;;;;;;15.55;28.14;101809.69;5035228;28;20483;-68
2021/10/09 10:46:26;;;;;;;11.23;6.70;;;;;;;15.53;28.52;101809.81;5052646;28;20033;-68
2021/10/09 10:49:15;;;;;;;10.82;6.32;;;;;;;15.60;28.43;101804.84;5052572;28;20037;-66
2021/10/09 10:57:02;;;;;;;12.10;6.40;;;;;;;15.66;28.70;101807.13;5051507;28;20055;-66
2021/10/09 10:59:45;;;;;;;11.70;6.00;;;;;;;15.70;28.30;101795.13;5053111;28;20461;-68
2021/10/09 11:02:16;;;;;;;14.02;6.63;;;;;;;15.63;28.14;101801.94;5051642;28;20546;-67
2021/10/09 11:04:43;;;;;;;9.13;6.30;;;;;;;15.55;28.80;101797.06;5052423;28;20472;-67
2021/10/09 11:07:09;;;;;;;10.45;6.38;;;;;;;15.40;29.12;101799.00;5051147;28;20033;-68
2021/10/09 11:09:36;;;;;;;7.70;5.65;;;;;;;15.33;29.42;101789.63;5052496;28;20128;-67
2021/10/09 11:12:02;;;;;;;10.85;5.72;;;;;;;15.33;29.07;101781.53;5051111;28;20527;-66
2021/10/09 11:14:28;;;;;;;10.10;5.88;;;;;;;15.38;29.35;101784.75;5052520;28;20025;-67
2021/10/09 11:17:01;;;;;;;7.60;4.88;;;;;;;15.49;28.42;101784.00;5034788;28;20441;-68
2021/10/09 11:19:48;;;;;;;7.70;5.03;;;;;;;15.36;27.90;101738.97;5051473;28;20033;-67
2021/10/09 11:22:15;;;;;;;14.00;5.90;;;;;;;15.41;28.69;101773.75;5034157;28;20098;-66
2021/10/09 11:24:43;;;;;;;9.00;5.15;;;;;;;15.33;28.44;101765.34;5033721;28;20508;-68
2021/10/09 11:27:09;;;;;;;8.48;4.78;;;;;;;15.25;28.65;101760.47;5033923;28;20465;-66
2021/10/09 11:29:35;;;;;;;7.47;4.88;;;;;;;15.30;28.98;101762.81;5050747;28;20101;-67
2021/10/09 11:32:05;;;;;;;10.05;4.90;;;;;;;15.30;28.67;101760.13;5050675;28;20431;-66
2021/10/09 11:34:31;;;;;;;9.95;5.20;;;;;;;15.23;29.00;101761.53;5034024;28;20400;-67
2021/10/09 11:36:57;;;;;;;7.03;4.47;;;;;;;15.15;28.81;101753.97;5052296;28;20119;-66
2021/10/09 11:39:26;;;;;;;13.25;4.95;;;;;;;15.13;29.21;101753.22;5051194;28;20143;-66
2021/10/09 11:42:08;;;;;;;11.77;4.60;;;;;;;15.21;28.69;101750.88;5052487;28;20174;-67
2021/10/09 11:44:42;;;;;;;7.00;4.50;;;;;;;14.89;29.47;101713.47;5050444;28;20166;-67
2021/10/09 11:55:26;;;;;;;9.88;5.72;;;;;;;15.07;28.75;101744.59;5051589;28;20480;-66
2021/10/09 11:57:53;;;;;;;12.02;5.72;;;;;;;14.88;29.37;101744.13;5050519;28;20025;-66
2021/10/09 12:00:28;;;;;;;9.02;5.28;;;;;;;14.88;28.98;101736.03;5033663;28;20037;-67
2021/10/09 12:03:01;;;;;;;11.13;5.23;;;;;;;14.73;29.74;101736.13;5033570;28;20057;-67
2021/10/09 12:05:47;;;;;;;8.20;4.93;;;;;;;14.74;29.65;101732.44;5033243;28;20389;-66
2021/10/09 12:08:18;;;;;;;7.43;4.50;;;;;;;14.81;28.97;101726.63;5051296;28;20075;-66
2021/10/09 12:11:23;;;;;;;5.47;4.15;;;;;;;14.96;28.94;101728.28;5032228;28;20048;-67
2021/10/09 12:14:06;;;;;;;6.82;4.13;;;;;;;14.99;28.31;101725.38;5050255;28;20495;-68
2021/10/09 12:16:33;;;;;;;9.05;4.22;;;;;;;15.02;28.41;101730.56;5051347;28;20048;-69
2021/10/09 12:19:13;;;;;;;8.90;4.22;;;;;;;15.16;28.23;101707.13;5051510;28;20040;-69
2021/10/09 12:21:51;;;;;;;6.90;4.13;;;;;;;15.30;28.71;101712.44;5051631;28;20036;-69
2021/10/09 12:24:29;;;;;;;11.10;4.82;;;;;;;15.30;28.37;101706.16;5029245;28;20033;-67
2021/10/09 12:27:07;;;;;;;6.55;4.57;;;;;;;15.34;28.31;101708.53;5029859;28;20120;-71
2021/10/09 12:29:35;;;;;;;7.93;4.22;;;;;;;15.28;28.06;101703.59;5031554;28;20054;-67
2021/10/09 12:32:17;;;;;;;12.35;4.63;;;;;;;15.37;28.38;101696.69;5046278;28;20415;-67
2021/10/09 12:34:44;;;;;;;7.32;4.38;;;;;;;14.99;28.66;101660.63;5031643;28;20044;-67
2021/10/09 12:37:26;;;;;;;7.50;4.22;;;;;;;15.22;28.66;101698.63;5030124;28;20070;-67
2021/10/09 12:40:16;;;;;;;6.95;4.30;;;;;;;15.18;28.38;101689.00;5046955;28;20401;-66
2021/10/09 12:42:49;;;;;;;11.43;4.43;;;;;;;15.03;28.71;101688.25;5029762;28;20036;-69
2021/10/09 12:45:15;;;;;;;7.32;4.47;;;;;;;14.92;29.12;101687.16;5013536;28;20030;-68
2021/10/09 12:47:44;;;;;;;9.50;4.30;;;;;;;14.92;28.85;101689.00;5029668;28;20040;-68
2021/10/09 12:50:11;;;;;;;14.48;5.18;;;;;;;14.77;28.95;101683.72;5028821;28;20029;-67
2021/10/09 12:52:36;;;;;;;9.43;4.55;;;;;;;14.55;28.89;101654.59;5028859;28;20041;-68
2021/10/09 12:55:03;;;;;;;9.20;5.07;;;;;;;14.68;28.66;101680.75;5022458;28;20022;-67
2021/10/09 12:57:32;;;;;;;9.32;4.50;;;;;;;14.62;28.82;101688.28;5029659;28;20087;-66
2021/10/09 12:59:59;;;;;;;9.10;4.18;;;;;;;14.53;28.68;101679.97;5045942;28;20033;-66
2021/10/09 13:02:25;;;;;;;7.25;4.60;;;;;;;14.53;29.40;101683.50;5029548;28;20120;-66
2021/10/09 13:04:50;;;;;;;10.30;4.20;;;;;;;14.43;29.12;101658.16;5046461;28;20030;-68
2021/10/09 13:07:17;;;;;;;10.18;4.88;;;;;;;14.45;28.95;101673.22;5029276;28;20076;-67
2021/10/09 13:09:42;;;;;;;8.73;4.18;;;;;;;14.33;30.08;101663.31;5028256;28;20079;-68
2021/10/09 13:12:13;;;;;;;10.70;5.05;;;;;;;14.30;30.20;101658.13;5029835;28;20041;-67
2021/10/09 13:14:38;;;;;;;12.07;4.90;;;;;;;14.23;29.63;101657.66;5031055;28;20033;-68
2021/10/09 13:17:04;;;;;;;9.27;4.40;;;;;;;14.18;30.06;101665.19;5030935;28;20120;-67
2021/10/09 13:19:30;;;;;;;10.10;4.25;;;;;;;14.12;30.76;101676.38;5029465;28;20452;-67
2021/10/09 13:21:55;;;;;;;10.27;4.63;;;;;;;14.04;30.54;101666.13;5033311;28;20541;-70
2021/10/09 13:24:21;;;;;;;11.27;4.65;;;;;;;13.97;29.96;101664.75;5035164;28;20445;-68
2021/10/09 13:26:47;;;;;;;7.38;4.40;;;;;;;13.89;30.56;101652.69;5033812;28;20029;-68
2021/10/09 13:29:12;;;;;;;10.13;4.18;;;;;;;13.84;30.33;101652.13;5035138;28;20115;-68
2021/10/09 13:31:38;;;;;;;6.90;4.38;;;;;;;13.83;30.64;101657.59;5035728;28;20465;-67
2021/10/09 13:34:04;;;;;;;12.90;4.68;;;;;;;13.81;30.58;101654.13;5054876;28;20040;-67
2021/10/09 13:36:29;;;;;;;9.57;4.78;;;;;;;13.74;31.29;101645.59;5053703;28;20482;-67
2021/10/09 13:38:56;;;;;;;8.00;4.45;;;;;;;13.73;31.44;101652.81;5036424;28;20078;-68
2021/10/09 13:41:21;;;;;;;7.45;4.40;;;;;;;13.48;30.84;101610.47;5053345;28;20043;-68
2021/10/09 13:43:47;;;;;;;13.27;4.80;;;;;;;13.60;30.62;101650.06;5054516;28;20021;-67
2021/10/09 13:46:13;;;;;;;6.10;4.60;;;;;;;13.57;30.63;101649.38;5053958;28;20056;-67
2021/10/09 13:48:43;;;;;;;6.03;4.22;;;;;;;13.56;31.02;101643.16;5052778;28;20036;-67